sensor_id;sensor_type;location;lat;lon;timestamp;temperature;humidity
26186;DHT22;20067;48.764;9.176;2023-04-29T00:00:06;14.70;91.30
26186;DHT22;20067;48.764;9.176;2023-04-29T00:02:33;14.60;91.30
26186;DHT22;20067;48.764;9.176;2023-04-29T00:04:58;14.70;91.30
26186;DHT22;20067;48.764;9.176;2023-04-29T00:07:24;14.70;91.30
26186;DHT22;20067;48.764;9.176;2023-04-29T00:09:49;14.70;91.30
26186;DHT22;20067;48.764;9.176;2023-04-29T00:12:15;14.70;91.30
26186;DHT22;20067;48.764;9.176;2023-04-29T00:14:41;14.70;91.30
26186;DHT22;20067;48.764;9.176;2023-04-29T00:17:08;14.60;91.30
26186;DHT22;20067;48.764;9.176;2023-04-29T00:19:33;14.70;91.30
26186;DHT22;20067;48.764;9.176;2023-04-29T00:21:59;14.70;91.30
26186;DHT22;20067;48.764;9.176;2023-04-29T00:24:25;14.80;91.30
26186;DHT22;20067;48.764;9.176;2023-04-29T00:26:51;14.80;91.30
26186;DHT22;20067;48.764;9.176;2023-04-29T00:29:17;14.80;91.30
26186;DHT22;20067;48.764;9.176;2023-04-29T00:31:43;14.60;91.30
26186;DHT22;20067;48.764;9.176;2023-04-29T00:34:09;14.70;91.30
26186;DHT22;20067;48.764;9.176;2023-04-29T00:36:35;14.80;91.30
26186;DHT22;20067;48.764;9.176;2023-04-29T00:39:00;14.80;91.30
26186;DHT22;20067;48.764;9.176;2023-04-29T00:41:27;14.90;91.30
26186;DHT22;20067;48.764;9.176;2023-04-29T00:43:53;14.80;91.30
26186;DHT22;20067;48.764;9.176;2023-04-29T00:46:19;14.80;91.30
26186;DHT22;20067;48.764;9.176;2023-04-29T00:48:44;14.70;91.30
26186;DHT22;20067;48.764;9.176;2023-04-29T00:51:10;14.80;91.30
26186;DHT22;20067;48.764;9.176;2023-04-29T00:53:36;14.90;91.30
26186;DHT22;20067;48.764;9.176;2023-04-29T00:56:03;14.80;91.30
26186;DHT22;20067;48.764;9.176;2023-04-29T00:58:29;14.80;91.30
26186;DHT22;20067;48.764;9.176;2023-04-29T01:01:01;14.70;91.30
26186;DHT22;20067;48.764;9.176;2023-04-29T01:03:31;14.80;91.30
26186;DHT22;20067;48.764;9.176;2023-04-29T01:14:26;14.90;91.30
26186;DHT22;20067;48.764;9.176;2023-04-29T01:16:55;14.80;91.30
26186;DHT22;20067;48.764;9.176;2023-04-29T01:22:08;14.60;91.30
26186;DHT22;20067;48.764;9.176;2023-04-29T01:24:34;14.50;91.30
26186;DHT22;20067;48.764;9.176;2023-04-29T01:29:58;14.70;91.30
26186;DHT22;20067;48.764;9.176;2023-04-29T01:35:37;14.60;91.30
26186;DHT22;20067;48.764;9.176;2023-04-29T01:38:29;14.50;91.30
26186;DHT22;20067;48.764;9.176;2023-04-29T01:44:03;14.50;91.30
26186;DHT22;20067;48.764;9.176;2023-04-29T01:46:31;14.40;91.30
26186;DHT22;20067;48.764;9.176;2023-04-29T01:48:58;14.40;91.30
26186;DHT22;20067;48.764;9.176;2023-04-29T01:51:23;14.30;91.30
26186;DHT22;20067;48.764;9.176;2023-04-29T01:53:49;14.30;91.30
26186;DHT22;20067;48.764;9.176;2023-04-29T01:56:14;14.40;91.30
26186;DHT22;20067;48.764;9.176;2023-04-29T01:58:40;14.30;91.30
26186;DHT22;20067;48.764;9.176;2023-04-29T02:01:06;14.30;91.30
26186;DHT22;20067;48.764;9.176;2023-04-29T02:03:31;14.30;91.30
26186;DHT22;20067;48.764;9.176;2023-04-29T02:05:57;14.20;91.30
26186;DHT22;20067;48.764;9.176;2023-04-29T02:08:23;14.20;91.30
26186;DHT22;20067;48.764;9.176;2023-04-29T02:10:56;14.20;91.30
26186;DHT22;20067;48.764;9.176;2023-04-29T02:13:22;14.30;91.30
26186;DHT22;20067;48.764;9.176;2023-04-29T02:15:47;14.20;91.30
26186;DHT22;20067;48.764;9.176;2023-04-29T02:18:13;14.20;91.30
26186;DHT22;20067;48.764;9.176;2023-04-29T02:20:39;14.10;91.30
26186;DHT22;20067;48.764;9.176;2023-04-29T02:23:05;14.10;91.30
26186;DHT22;20067;48.764;9.176;2023-04-29T02:25:31;14.00;91.30
26186;DHT22;20067;48.764;9.176;2023-04-29T02:27:56;13.90;91.30
26186;DHT22;20067;48.764;9.176;2023-04-29T02:30:22;13.90;91.30
26186;DHT22;20067;48.764;9.176;2023-04-29T02:32:47;13.80;91.30
26186;DHT22;20067;48.764;9.176;2023-04-29T02:35:13;13.90;91.30
26186;DHT22;20067;48.764;9.176;2023-04-29T02:37:39;13.90;91.30
26186;DHT22;20067;48.764;9.176;2023-04-29T02:40:05;13.90;91.30
26186;DHT22;20067;48.764;9.176;2023-04-29T02:42:31;13.90;91.30
26186;DHT22;20067;48.764;9.176;2023-04-29T02:44:57;14.00;91.30
26186;DHT22;20067;48.764;9.176;2023-04-29T02:47:22;14.00;91.30
26186;DHT22;20067;48.764;9.176;2023-04-29T02:49:48;14.00;91.30
26186;DHT22;20067;48.764;9.176;2023-04-29T02:52:14;14.00;91.30
26186;DHT22;20067;48.764;9.176;2023-04-29T02:54:41;14.00;91.30
26186;DHT22;20067;48.764;9.176;2023-04-29T02:57:07;14.00;91.30
26186;DHT22;20067;48.764;9.176;2023-04-29T02:59:33;13.80;91.30
26186;DHT22;20067;48.764;9.176;2023-04-29T03:01:58;13.80;91.30
26186;DHT22;20067;48.764;9.176;2023-04-29T03:04:26;13.70;91.30
26186;DHT22;20067;48.764;9.176;2023-04-29T03:06:54;13.70;91.30
26186;DHT22;20067;48.764;9.176;2023-04-29T03:09:20;13.70;91.30
26186;DHT22;20067;48.764;9.176;2023-04-29T03:11:46;13.70;91.30
26186;DHT22;20067;48.764;9.176;2023-04-29T03:14:12;13.80;91.30
26186;DHT22;20067;48.764;9.176;2023-04-29T03:16:37;13.80;91.30
26186;DHT22;20067;48.764;9.176;2023-04-29T03:19:03;13.70;91.30
26186;DHT22;20067;48.764;9.176;2023-04-29T03:21:28;13.70;91.30
26186;DHT22;20067;48.764;9.176;2023-04-29T03:23:54;13.70;91.30
26186;DHT22;20067;48.764;9.176;2023-04-29T03:26:20;13.60;91.30
26186;DHT22;20067;48.764;9.176;2023-04-29T03:28:48;13.60;91.30
26186;DHT22;20067;48.764;9.176;2023-04-29T03:31:14;13.70;91.30
26186;DHT22;20067;48.764;9.176;2023-04-29T03:33:40;13.70;91.30
26186;DHT22;20067;48.764;9.176;2023-04-29T03:36:06;13.70;91.30
26186;DHT22;20067;48.764;9.176;2023-04-29T03:38:33;13.70;91.30
26186;DHT22;20067;48.764;9.176;2023-04-29T03:40:58;13.70;91.30
26186;DHT22;20067;48.764;9.176;2023-04-29T03:43:24;13.70;91.30
26186;DHT22;20067;48.764;9.176;2023-04-29T03:45:50;13.60;91.30
26186;DHT22;20067;48.764;9.176;2023-04-29T03:48:16;13.60;91.30
26186;DHT22;20067;48.764;9.176;2023-04-29T03:50:41;13.60;91.30
26186;DHT22;20067;48.764;9.176;2023-04-29T03:53:07;13.60;91.30
26186;DHT22;20067;48.764;9.176;2023-04-29T03:55:33;13.60;91.30
26186;DHT22;20067;48.764;9.176;2023-04-29T03:57:58;13.60;91.30
26186;DHT22;20067;48.764;9.176;2023-04-29T04:00:24;13.60;91.30
26186;DHT22;20067;48.764;9.176;2023-04-29T04:02:51;13.60;91.30
26186;DHT22;20067;48.764;9.176;2023-04-29T04:05:16;13.60;91.30
26186;DHT22;20067;48.764;9.176;2023-04-29T04:07:45;13.50;91.30
26186;DHT22;20067;48.764;9.176;2023-04-29T04:10:11;13.40;91.30
26186;DHT22;20067;48.764;9.176;2023-04-29T04:12:36;13.40;91.30
26186;DHT22;20067;48.764;9.176;2023-04-29T04:15:02;13.40;91.30
26186;DHT22;20067;48.764;9.176;2023-04-29T04:17:28;13.40;91.30
26186;DHT22;20067;48.764;9.176;2023-04-29T04:19:54;13.40;91.30
26186;DHT22;20067;48.764;9.176;2023-04-29T04:22:20;13.40;91.30
26186;DHT22;20067;48.764;9.176;2023-04-29T04:24:46;13.40;91.30
26186;DHT22;20067;48.764;9.176;2023-04-29T04:27:11;13.40;91.30
26186;DHT22;20067;48.764;9.176;2023-04-29T04:29:37;13.30;91.30
26186;DHT22;20067;48.764;9.176;2023-04-29T04:32:04;13.30;91.30
26186;DHT22;20067;48.764;9.176;2023-04-29T04:34:29;13.30;91.30
26186;DHT22;20067;48.764;9.176;2023-04-29T04:36:55;13.20;91.30
26186;DHT22;20067;48.764;9.176;2023-04-29T04:39:20;13.10;91.30
26186;DHT22;20067;48.764;9.176;2023-04-29T04:41:46;12.90;91.30
26186;DHT22;20067;48.764;9.176;2023-04-29T04:44:12;12.80;91.30
26186;DHT22;20067;48.764;9.176;2023-04-29T04:46:38;12.70;91.30
26186;DHT22;20067;48.764;9.176;2023-04-29T04:49:04;12.70;91.30
26186;DHT22;20067;48.764;9.176;2023-04-29T04:51:30;12.70;91.30
26186;DHT22;20067;48.764;9.176;2023-04-29T04:53:55;12.70;91.30
26186;DHT22;20067;48.764;9.176;2023-04-29T04:56:21;12.70;91.30
26186;DHT22;20067;48.764;9.176;2023-04-29T04:58:47;12.70;91.30
26186;DHT22;20067;48.764;9.176;2023-04-29T05:01:12;12.70;91.30
26186;DHT22;20067;48.764;9.176;2023-04-29T05:03:38;12.80;91.30
26186;DHT22;20067;48.764;9.176;2023-04-29T05:06:04;12.90;91.30
26186;DHT22;20067;48.764;9.176;2023-04-29T05:08:29;12.90;91.30
26186;DHT22;20067;48.764;9.176;2023-04-29T05:10:55;13.00;91.30
26186;DHT22;20067;48.764;9.176;2023-04-29T05:13:22;13.00;91.30
26186;DHT22;20067;48.764;9.176;2023-04-29T05:15:47;13.10;91.30
26186;DHT22;20067;48.764;9.176;2023-04-29T05:18:13;13.20;91.30
26186;DHT22;20067;48.764;9.176;2023-04-29T05:20:39;13.00;91.30
26186;DHT22;20067;48.764;9.176;2023-04-29T05:23:04;12.90;91.30
26186;DHT22;20067;48.764;9.176;2023-04-29T05:25:30;12.90;91.30
26186;DHT22;20067;48.764;9.176;2023-04-29T05:27:56;12.90;91.30
26186;DHT22;20067;48.764;9.176;2023-04-29T05:30:21;12.90;91.30
26186;DHT22;20067;48.764;9.176;2023-04-29T05:32:47;13.00;91.30
26186;DHT22;20067;48.764;9.176;2023-04-29T05:35:16;13.10;91.30
26186;DHT22;20067;48.764;9.176;2023-04-29T05:37:41;13.40;91.30
26186;DHT22;20067;48.764;9.176;2023-04-29T05:40:07;13.60;91.30
26186;DHT22;20067;48.764;9.176;2023-04-29T05:42:34;13.50;91.30
26186;DHT22;20067;48.764;9.176;2023-04-29T05:44:59;13.70;91.30
26186;DHT22;20067;48.764;9.176;2023-04-29T05:47:25;13.80;91.30
26186;DHT22;20067;48.764;9.176;2023-04-29T05:49:51;13.90;91.30
26186;DHT22;20067;48.764;9.176;2023-04-29T05:52:16;14.00;91.30
26186;DHT22;20067;48.764;9.176;2023-04-29T05:54:42;14.10;91.30
26186;DHT22;20067;48.764;9.176;2023-04-29T05:57:07;14.30;91.30
26186;DHT22;20067;48.764;9.176;2023-04-29T05:59:33;14.40;91.30
26186;DHT22;20067;48.764;9.176;2023-04-29T06:01:59;14.40;91.30
26186;DHT22;20067;48.764;9.176;2023-04-29T06:04:25;14.60;91.30
26186;DHT22;20067;48.764;9.176;2023-04-29T06:06:54;14.60;91.30
26186;DHT22;20067;48.764;9.176;2023-04-29T06:09:21;14.80;91.30
26186;DHT22;20067;48.764;9.176;2023-04-29T06:11:50;15.00;91.30
26186;DHT22;20067;48.764;9.176;2023-04-29T06:14:16;15.00;91.30
26186;DHT22;20067;48.764;9.176;2023-04-29T06:16:41;14.90;91.30
26186;DHT22;20067;48.764;9.176;2023-04-29T06:19:07;14.90;91.30
26186;DHT22;20067;48.764;9.176;2023-04-29T06:21:33;14.80;91.30
26186;DHT22;20067;48.764;9.176;2023-04-29T06:23:59;14.90;91.30
26186;DHT22;20067;48.764;9.176;2023-04-29T06:26:24;15.00;91.30
26186;DHT22;20067;48.764;9.176;2023-04-29T06:28:50;15.10;91.30
26186;DHT22;20067;48.764;9.176;2023-04-29T06:31:15;15.20;91.30
26186;DHT22;20067;48.764;9.176;2023-04-29T06:33:42;15.10;91.30
26186;DHT22;20067;48.764;9.176;2023-04-29T06:36:08;14.90;91.30
26186;DHT22;20067;48.764;9.176;2023-04-29T06:38:34;14.90;91.30
26186;DHT22;20067;48.764;9.176;2023-04-29T06:40:59;14.80;91.30
26186;DHT22;20067;48.764;9.176;2023-04-29T06:43:34;14.90;91.30
26186;DHT22;20067;48.764;9.176;2023-04-29T06:46:00;14.70;91.30
26186;DHT22;20067;48.764;9.176;2023-04-29T06:48:25;14.70;91.30
26186;DHT22;20067;48.764;9.176;2023-04-29T06:50:54;14.80;91.30
26186;DHT22;20067;48.764;9.176;2023-04-29T06:53:20;15.00;91.30
26186;DHT22;20067;48.764;9.176;2023-04-29T06:55:46;14.90;91.30
26186;DHT22;20067;48.764;9.176;2023-04-29T06:58:13;14.80;91.30
26186;DHT22;20067;48.764;9.176;2023-04-29T07:00:39;14.80;91.30
26186;DHT22;20067;48.764;9.176;2023-04-29T07:03:05;14.90;91.30
26186;DHT22;20067;48.764;9.176;2023-04-29T07:05:31;15.20;91.30
26186;DHT22;20067;48.764;9.176;2023-04-29T07:07:57;15.40;91.30
26186;DHT22;20067;48.764;9.176;2023-04-29T07:10:22;15.60;91.30
26186;DHT22;20067;48.764;9.176;2023-04-29T07:12:48;15.30;91.30
26186;DHT22;20067;48.764;9.176;2023-04-29T07:15:13;15.20;91.30
26186;DHT22;20067;48.764;9.176;2023-04-29T07:17:39;15.30;91.30
26186;DHT22;20067;48.764;9.176;2023-04-29T07:20:05;15.30;91.30
26186;DHT22;20067;48.764;9.176;2023-04-29T07:22:32;15.50;91.30
26186;DHT22;20067;48.764;9.176;2023-04-29T07:24:58;15.60;91.30
26186;DHT22;20067;48.764;9.176;2023-04-29T07:27:24;15.50;91.30
26186;DHT22;20067;48.764;9.176;2023-04-29T07:29:49;15.60;91.30
26186;DHT22;20067;48.764;9.176;2023-04-29T07:32:15;15.70;91.30
26186;DHT22;20067;48.764;9.176;2023-04-29T07:34:41;15.60;91.30
26186;DHT22;20067;48.764;9.176;2023-04-29T07:37:06;16.60;91.30
26186;DHT22;20067;48.764;9.176;2023-04-29T07:39:32;18.50;85.50
26186;DHT22;20067;48.764;9.176;2023-04-29T07:41:59;19.40;82.90
26186;DHT22;20067;48.764;9.176;2023-04-29T07:44:25;19.50;80.60
26186;DHT22;20067;48.764;9.176;2023-04-29T07:46:51;19.00;80.50
26186;DHT22;20067;48.764;9.176;2023-04-29T07:49:16;18.40;82.00
26186;DHT22;20067;48.764;9.176;2023-04-29T07:51:42;18.10;83.70
26186;DHT22;20067;48.764;9.176;2023-04-29T07:54:08;17.60;84.20
26186;DHT22;20067;48.764;9.176;2023-04-29T07:56:34;17.40;84.80
26186;DHT22;20067;48.764;9.176;2023-04-29T07:59:00;17.10;87.00
26186;DHT22;20067;48.764;9.176;2023-04-29T08:01:26;16.80;87.10
26186;DHT22;20067;48.764;9.176;2023-04-29T08:03:53;16.50;87.70
26186;DHT22;20067;48.764;9.176;2023-04-29T08:06:18;16.30;87.80
26186;DHT22;20067;48.764;9.176;2023-04-29T08:08:49;16.30;88.10
26186;DHT22;20067;48.764;9.176;2023-04-29T08:11:18;16.20;88.50
26186;DHT22;20067;48.764;9.176;2023-04-29T08:13:45;16.20;88.10
26186;DHT22;20067;48.764;9.176;2023-04-29T08:16:11;16.00;88.70
26186;DHT22;20067;48.764;9.176;2023-04-29T08:18:37;15.90;90.10
26186;DHT22;20067;48.764;9.176;2023-04-29T08:21:04;16.10;90.00
26186;DHT22;20067;48.764;9.176;2023-04-29T08:23:29;16.10;89.30
26186;DHT22;20067;48.764;9.176;2023-04-29T08:25:55;16.10;88.90
26186;DHT22;20067;48.764;9.176;2023-04-29T08:28:21;16.10;88.80
26186;DHT22;20067;48.764;9.176;2023-04-29T08:30:47;16.10;89.50
26186;DHT22;20067;48.764;9.176;2023-04-29T08:33:13;16.10;89.30
26186;DHT22;20067;48.764;9.176;2023-04-29T08:35:39;16.00;88.60
26186;DHT22;20067;48.764;9.176;2023-04-29T08:38:06;16.10;88.80
26186;DHT22;20067;48.764;9.176;2023-04-29T08:40:45;16.00;88.50
26186;DHT22;20067;48.764;9.176;2023-04-29T08:43:13;16.10;89.00
26186;DHT22;20067;48.764;9.176;2023-04-29T08:45:40;15.80;89.80
26186;DHT22;20067;48.764;9.176;2023-04-29T08:48:06;15.40;91.10
26186;DHT22;20067;48.764;9.176;2023-04-29T08:50:40;15.20;91.30
26186;DHT22;20067;48.764;9.176;2023-04-29T08:53:06;14.90;91.30
26186;DHT22;20067;48.764;9.176;2023-04-29T08:55:35;14.50;91.30
26186;DHT22;20067;48.764;9.176;2023-04-29T08:58:02;14.40;91.30
26186;DHT22;20067;48.764;9.176;2023-04-29T09:00:31;14.20;91.30
26186;DHT22;20067;48.764;9.176;2023-04-29T09:02:57;14.20;91.30
26186;DHT22;20067;48.764;9.176;2023-04-29T09:05:25;14.20;91.30
26186;DHT22;20067;48.764;9.176;2023-04-29T09:07:52;14.30;91.30
26186;DHT22;20067;48.764;9.176;2023-04-29T09:10:18;14.40;91.30
26186;DHT22;20067;48.764;9.176;2023-04-29T09:12:44;14.50;91.30
26186;DHT22;20067;48.764;9.176;2023-04-29T09:15:10;14.40;91.30
26186;DHT22;20067;48.764;9.176;2023-04-29T09:17:40;14.30;91.30
26186;DHT22;20067;48.764;9.176;2023-04-29T09:22:51;14.30;91.30
26186;DHT22;20067;48.764;9.176;2023-04-29T09:25:17;14.30;91.30
26186;DHT22;20067;48.764;9.176;2023-04-29T09:27:43;14.50;91.30
26186;DHT22;20067;48.764;9.176;2023-04-29T09:30:09;14.50;91.30
26186;DHT22;20067;48.764;9.176;2023-04-29T09:32:37;14.60;91.30
26186;DHT22;20067;48.764;9.176;2023-04-29T09:35:21;14.90;91.30
26186;DHT22;20067;48.764;9.176;2023-04-29T09:37:47;15.30;91.30
26186;DHT22;20067;48.764;9.176;2023-04-29T09:40:33;15.70;91.30
26186;DHT22;20067;48.764;9.176;2023-04-29T09:42:59;15.90;91.20
26186;DHT22;20067;48.764;9.176;2023-04-29T09:45:35;16.10;90.20
26186;DHT22;20067;48.764;9.176;2023-04-29T09:48:03;16.70;88.20
26186;DHT22;20067;48.764;9.176;2023-04-29T09:50:29;17.00;86.70
26186;DHT22;20067;48.764;9.176;2023-04-29T09:52:55;17.00;85.90
26186;DHT22;20067;48.764;9.176;2023-04-29T09:55:21;16.80;85.90
26186;DHT22;20067;48.764;9.176;2023-04-29T09:57:47;16.60;87.80
26186;DHT22;20067;48.764;9.176;2023-04-29T10:00:13;16.70;86.50
26186;DHT22;20067;48.764;9.176;2023-04-29T10:02:45;16.60;86.20
26186;DHT22;20067;48.764;9.176;2023-04-29T10:05:13;16.60;86.50
26186;DHT22;20067;48.764;9.176;2023-04-29T10:07:40;17.40;84.40
26186;DHT22;20067;48.764;9.176;2023-04-29T10:10:07;18.60;80.30
26186;DHT22;20067;48.764;9.176;2023-04-29T10:12:35;20.40;76.20
26186;DHT22;20067;48.764;9.176;2023-04-29T10:19:03;22.60;69.50
26186;DHT22;20067;48.764;9.176;2023-04-29T10:20:59;21.10;70.90
26186;DHT22;20067;48.764;9.176;2023-04-29T10:23:28;21.70;70.20
26186;DHT22;20067;48.764;9.176;2023-04-29T10:25:54;23.10;67.20
26186;DHT22;20067;48.764;9.176;2023-04-29T10:28:22;25.80;61.90
26186;DHT22;20067;48.764;9.176;2023-04-29T10:30:50;24.20;62.30
26186;DHT22;20067;48.764;9.176;2023-04-29T10:33:20;20.90;69.10
26186;DHT22;20067;48.764;9.176;2023-04-29T10:35:47;19.30;72.90
26186;DHT22;20067;48.764;9.176;2023-04-29T10:38:23;18.60;76.00
26186;DHT22;20067;48.764;9.176;2023-04-29T10:40:51;18.50;78.00
26186;DHT22;20067;48.764;9.176;2023-04-29T10:43:25;18.70;77.50
26186;DHT22;20067;48.764;9.176;2023-04-29T10:46:17;18.40;79.30
26186;DHT22;20067;48.764;9.176;2023-04-29T10:48:44;18.60;77.90
26186;DHT22;20067;48.764;9.176;2023-04-29T10:51:09;18.60;78.50
26186;DHT22;20067;48.764;9.176;2023-04-29T10:53:35;18.60;78.00
26186;DHT22;20067;48.764;9.176;2023-04-29T10:56:21;18.10;78.60
26186;DHT22;20067;48.764;9.176;2023-04-29T10:58:46;17.50;80.50
26186;DHT22;20067;48.764;9.176;2023-04-29T11:01:14;17.60;81.00
26186;DHT22;20067;48.764;9.176;2023-04-29T11:06:19;20.20;75.10
26186;DHT22;20067;48.764;9.176;2023-04-29T11:08:44;19.90;74.60
26186;DHT22;20067;48.764;9.176;2023-04-29T11:11:12;19.20;76.90
26186;DHT22;20067;48.764;9.176;2023-04-29T11:13:39;20.10;74.00
26186;DHT22;20067;48.764;9.176;2023-04-29T11:16:06;20.80;72.80
26186;DHT22;20067;48.764;9.176;2023-04-29T11:18:33;20.10;73.20
26186;DHT22;20067;48.764;9.176;2023-04-29T11:23:34;18.60;76.70
26186;DHT22;20067;48.764;9.176;2023-04-29T11:26:01;18.00;77.90
26186;DHT22;20067;48.764;9.176;2023-04-29T11:28:27;17.90;79.20
26186;DHT22;20067;48.764;9.176;2023-04-29T11:30:53;18.20;78.50
26186;DHT22;20067;48.764;9.176;2023-04-29T11:33:24;18.20;77.20
26186;DHT22;20067;48.764;9.176;2023-04-29T11:35:55;18.20;77.60
26186;DHT22;20067;48.764;9.176;2023-04-29T11:38:25;18.40;74.60
26186;DHT22;20067;48.764;9.176;2023-04-29T11:40:51;18.30;73.90
26186;DHT22;20067;48.764;9.176;2023-04-29T11:43:21;18.00;75.20
26186;DHT22;20067;48.764;9.176;2023-04-29T11:45:47;18.10;75.80
26186;DHT22;20067;48.764;9.176;2023-04-29T11:48:19;18.30;75.60
26186;DHT22;20067;48.764;9.176;2023-04-29T11:50:49;18.40;75.80
26186;DHT22;20067;48.764;9.176;2023-04-29T11:53:19;18.90;75.60
26186;DHT22;20067;48.764;9.176;2023-04-29T11:55:45;19.30;73.90
26186;DHT22;20067;48.764;9.176;2023-04-29T11:58:11;19.40;72.60
26186;DHT22;20067;48.764;9.176;2023-04-29T12:00:37;19.70;73.40
26186;DHT22;20067;48.764;9.176;2023-04-29T12:03:18;19.90;74.10
26186;DHT22;20067;48.764;9.176;2023-04-29T12:05:53;20.00;74.40
26186;DHT22;20067;48.764;9.176;2023-04-29T12:08:20;20.60;73.40
26186;DHT22;20067;48.764;9.176;2023-04-29T12:10:49;20.90;71.40
26186;DHT22;20067;48.764;9.176;2023-04-29T12:13:16;20.50;71.60
26186;DHT22;20067;48.764;9.176;2023-04-29T12:15:43;19.80;73.10
26186;DHT22;20067;48.764;9.176;2023-04-29T12:18:09;19.60;74.70
26186;DHT22;20067;48.764;9.176;2023-04-29T12:20:35;19.60;73.90
26186;DHT22;20067;48.764;9.176;2023-04-29T12:23:16;19.50;74.40
26186;DHT22;20067;48.764;9.176;2023-04-29T12:25:52;20.00;74.40
26186;DHT22;20067;48.764;9.176;2023-04-29T12:28:18;19.80;74.30
26186;DHT22;20067;48.764;9.176;2023-04-29T12:30:48;19.80;74.00
26186;DHT22;20067;48.764;9.176;2023-04-29T12:33:28;19.60;74.70
26186;DHT22;20067;48.764;9.176;2023-04-29T12:35:56;19.10;75.80
26186;DHT22;20067;48.764;9.176;2023-04-29T12:38:23;19.20;75.70
26186;DHT22;20067;48.764;9.176;2023-04-29T12:40:53;19.30;75.50
26186;DHT22;20067;48.764;9.176;2023-04-29T12:43:19;18.80;76.00
26186;DHT22;20067;48.764;9.176;2023-04-29T12:45:45;18.70;76.90
26186;DHT22;20067;48.764;9.176;2023-04-29T12:48:11;18.70;77.40
26186;DHT22;20067;48.764;9.176;2023-04-29T12:50:38;18.30;77.60
26186;DHT22;20067;48.764;9.176;2023-04-29T12:53:07;18.30;78.20
26186;DHT22;20067;48.764;9.176;2023-04-29T12:55:34;18.80;77.10
26186;DHT22;20067;48.764;9.176;2023-04-29T12:58:04;19.30;75.00
26186;DHT22;20067;48.764;9.176;2023-04-29T13:00:30;19.30;75.80
26186;DHT22;20067;48.764;9.176;2023-04-29T13:02:56;19.20;75.70
26186;DHT22;20067;48.764;9.176;2023-04-29T13:05:22;19.20;74.20
26186;DHT22;20067;48.764;9.176;2023-04-29T13:07:48;18.70;75.40
26186;DHT22;20067;48.764;9.176;2023-04-29T13:10:14;18.40;75.80
26186;DHT22;20067;48.764;9.176;2023-04-29T13:12:40;18.10;76.30
26186;DHT22;20067;48.764;9.176;2023-04-29T13:15:07;17.80;78.10
26186;DHT22;20067;48.764;9.176;2023-04-29T13:17:35;17.90;78.40
26186;DHT22;20067;48.764;9.176;2023-04-29T13:20:05;18.30;77.90
26186;DHT22;20067;48.764;9.176;2023-04-29T13:22:31;18.70;77.30
26186;DHT22;20067;48.764;9.176;2023-04-29T13:24:57;18.90;76.60
26186;DHT22;20067;48.764;9.176;2023-04-29T13:27:22;19.30;76.00
26186;DHT22;20067;48.764;9.176;2023-04-29T13:29:48;19.60;74.90
26186;DHT22;20067;48.764;9.176;2023-04-29T13:32:14;19.80;74.10
26186;DHT22;20067;48.764;9.176;2023-04-29T13:34:40;19.80;74.90
26186;DHT22;20067;48.764;9.176;2023-04-29T13:37:08;19.90;73.70
26186;DHT22;20067;48.764;9.176;2023-04-29T13:39:34;19.60;73.80
26186;DHT22;20067;48.764;9.176;2023-04-29T13:42:00;19.20;75.20
26186;DHT22;20067;48.764;9.176;2023-04-29T13:44:26;19.10;75.60
26186;DHT22;20067;48.764;9.176;2023-04-29T13:46:52;18.90;75.40
26186;DHT22;20067;48.764;9.176;2023-04-29T13:49:17;18.80;75.80
26186;DHT22;20067;48.764;9.176;2023-04-29T13:51:43;18.50;76.40
26186;DHT22;20067;48.764;9.176;2023-04-29T13:54:09;18.50;77.00
26186;DHT22;20067;48.764;9.176;2023-04-29T13:56:34;18.60;76.40
26186;DHT22;20067;48.764;9.176;2023-04-29T13:59:00;18.70;76.10
26186;DHT22;20067;48.764;9.176;2023-04-29T14:01:26;18.90;74.90
26186;DHT22;20067;48.764;9.176;2023-04-29T14:03:52;18.90;75.10
26186;DHT22;20067;48.764;9.176;2023-04-29T14:06:18;19.10;75.20
26186;DHT22;20067;48.764;9.176;2023-04-29T14:08:43;19.20;74.90
26186;DHT22;20067;48.764;9.176;2023-04-29T14:11:09;19.70;73.80
26186;DHT22;20067;48.764;9.176;2023-04-29T14:13:35;19.90;73.70
26186;DHT22;20067;48.764;9.176;2023-04-29T14:16:01;20.20;73.10
26186;DHT22;20067;48.764;9.176;2023-04-29T14:18:29;20.30;72.50
26186;DHT22;20067;48.764;9.176;2023-04-29T14:20:55;20.30;71.70
26186;DHT22;20067;48.764;9.176;2023-04-29T14:23:22;20.30;72.20
26186;DHT22;20067;48.764;9.176;2023-04-29T14:25:48;19.70;72.60
26186;DHT22;20067;48.764;9.176;2023-04-29T14:28:13;19.60;73.50
26186;DHT22;20067;48.764;9.176;2023-04-29T14:30:39;19.80;73.10
26186;DHT22;20067;48.764;9.176;2023-04-29T14:33:05;19.60;74.10
26186;DHT22;20067;48.764;9.176;2023-04-29T14:35:32;19.30;73.90
26186;DHT22;20067;48.764;9.176;2023-04-29T14:37:58;18.90;74.50
26186;DHT22;20067;48.764;9.176;2023-04-29T14:40:23;18.70;75.10
26186;DHT22;20067;48.764;9.176;2023-04-29T14:42:49;18.40;75.80
26186;DHT22;20067;48.764;9.176;2023-04-29T14:45:14;18.00;76.30
26186;DHT22;20067;48.764;9.176;2023-04-29T14:47:41;17.40;77.70
26186;DHT22;20067;48.764;9.176;2023-04-29T14:50:07;17.10;79.30
26186;DHT22;20067;48.764;9.176;2023-04-29T14:52:34;17.00;79.90
26186;DHT22;20067;48.764;9.176;2023-04-29T14:55:00;17.20;79.40
26186;DHT22;20067;48.764;9.176;2023-04-29T14:57:26;17.30;78.80
26186;DHT22;20067;48.764;9.176;2023-04-29T14:59:51;17.50;78.70
26186;DHT22;20067;48.764;9.176;2023-04-29T15:02:17;17.60;77.90
26186;DHT22;20067;48.764;9.176;2023-04-29T15:04:43;17.60;77.70
26186;DHT22;20067;48.764;9.176;2023-04-29T15:07:13;17.70;77.90
26186;DHT22;20067;48.764;9.176;2023-04-29T15:09:40;17.90;77.30
26186;DHT22;20067;48.764;9.176;2023-04-29T15:12:06;17.70;76.90
26186;DHT22;20067;48.764;9.176;2023-04-29T15:14:32;17.20;78.00
26186;DHT22;20067;48.764;9.176;2023-04-29T15:16:58;17.20;78.10
26186;DHT22;20067;48.764;9.176;2023-04-29T15:19:24;17.20;78.40
26186;DHT22;20067;48.764;9.176;2023-04-29T15:21:51;17.40;78.50
26186;DHT22;20067;48.764;9.176;2023-04-29T15:24:17;17.60;77.80
26186;DHT22;20067;48.764;9.176;2023-04-29T15:26:43;17.20;78.20
26186;DHT22;20067;48.764;9.176;2023-04-29T15:29:09;17.20;78.30
26186;DHT22;20067;48.764;9.176;2023-04-29T15:31:36;17.10;79.10
26186;DHT22;20067;48.764;9.176;2023-04-29T15:34:02;17.20;78.90
26186;DHT22;20067;48.764;9.176;2023-04-29T15:36:30;17.30;79.10
26186;DHT22;20067;48.764;9.176;2023-04-29T15:38:57;17.20;79.10
26186;DHT22;20067;48.764;9.176;2023-04-29T15:41:23;17.30;79.00
26186;DHT22;20067;48.764;9.176;2023-04-29T15:43:52;17.20;78.50
26186;DHT22;20067;48.764;9.176;2023-04-29T15:46:17;16.80;79.60
26186;DHT22;20067;48.764;9.176;2023-04-29T15:48:43;16.80;79.40
26186;DHT22;20067;48.764;9.176;2023-04-29T15:51:09;16.60;79.90
26186;DHT22;20067;48.764;9.176;2023-04-29T15:53:38;16.60;80.20
26186;DHT22;20067;48.764;9.176;2023-04-29T15:56:06;16.50;81.20
26186;DHT22;20067;48.764;9.176;2023-04-29T15:58:31;16.70;80.30